createdAt,value
2023-11-13T00:00:51.603Z,98030.13
2023-11-13T00:01:53.942Z,98028.72
2023-11-13T00:02:56.272Z,98033.16
2023-11-13T00:03:58.526Z,98036.34
2023-11-13T00:05:00.673Z,98033.81
2023-11-13T00:06:04.761Z,98031.59
2023-11-13T00:07:06.886Z,98042.09
2023-11-13T00:08:08.899Z,98034.44
2023-11-13T00:09:10.790Z,98035.72
2023-11-13T00:10:13.831Z,98026.47
2023-11-13T00:11:15.929Z,98019.66
2023-11-13T00:12:17.919Z,98021.75
2023-11-13T00:13:20.405Z,98011.38
2023-11-13T00:14:23.582Z,98009.94
2023-11-13T00:15:25.652Z,98009.00
2023-11-13T00:16:27.580Z,98004.84
2023-11-13T00:17:29.556Z,98000.69
2023-11-13T00:18:33.493Z,97998.00
2023-11-13T00:19:37.403Z,98001.16
2023-11-13T00:20:39.499Z,97999.44
2023-11-13T00:21:41.749Z,98008.81
2023-11-13T00:22:43.633Z,97999.56
2023-11-13T00:23:45.790Z,97998.94
2023-11-13T00:24:47.739Z,97994.00
2023-11-13T00:25:50.074Z,97989.88
2023-11-13T00:26:52.917Z,97993.69
2023-11-13T00:27:55.203Z,97985.88
2023-11-13T00:28:57.227Z,97994.28
2023-11-13T00:29:59.112Z,97989.69
2023-11-13T00:31:01.019Z,97985.88
2023-11-13T00:32:03.016Z,97982.03
2023-11-13T00:33:06.213Z,97978.50
2023-11-13T00:34:08.588Z,97997.94
2023-11-13T00:35:10.785Z,98007.63
2023-11-13T00:36:13.419Z,97998.03
2023-11-13T00:37:15.415Z,97999.63
2023-11-13T00:38:17.438Z,97993.84
2023-11-13T00:39:20.811Z,97995.09
2023-11-13T00:40:25.461Z,97994.44
2023-11-13T00:41:29.008Z,97989.47
2023-11-13T00:42:30.820Z,97981.03
2023-11-13T00:43:32.726Z,97987.69
2023-11-13T00:44:34.588Z,97989.75
2023-11-13T00:45:36.661Z,97987.13
2023-11-13T00:46:38.687Z,97981.69
2023-11-13T00:47:40.862Z,97977.22
2023-11-13T00:48:43.128Z,97973.03
2023-11-13T00:49:45.985Z,97981.28
2023-11-13T00:50:47.894Z,97987.31
2023-11-13T00:51:50.015Z,97985.84
2023-11-13T00:52:51.979Z,97987.59
2023-11-13T00:53:54.069Z,97979.09
2023-11-13T00:54:57.972Z,97982.44
2023-11-13T00:55:59.852Z,97976.03
2023-11-13T00:57:01.922Z,97980.44
2023-11-13T00:58:05.713Z,97979.75
2023-11-13T00:59:08.241Z,97973.38
2023-11-13T01:00:10.901Z,97977.00
2023-11-13T01:01:15.305Z,97969.50
2023-11-13T01:02:18.554Z,97971.22
2023-11-13T01:03:20.594Z,97970.25
2023-11-13T01:04:23.141Z,97973.53
2023-11-13T01:05:25.082Z,97974.16
2023-11-13T01:06:27.029Z,97980.50
2023-11-13T01:07:28.956Z,97978.38
2023-11-13T01:08:30.932Z,97977.72
2023-11-13T01:09:32.895Z,97980.50
2023-11-13T01:10:34.911Z,97982.72
2023-11-13T01:11:37.447Z,97983.34
2023-11-13T01:12:39.472Z,97982.84
2023-11-13T01:13:43.337Z,97981.00
2023-11-13T01:14:45.432Z,97985.91
2023-11-13T01:15:54.064Z,97982.25
2023-11-13T01:16:56.100Z,97977.16
2023-11-13T01:17:58.134Z,97982.66
2023-11-13T01:19:00.118Z,97979.44
2023-11-13T01:20:03.698Z,97974.19
2023-11-13T01:21:06.070Z,97976.34
2023-11-13T01:22:08.132Z,97969.69
2023-11-13T01:23:10.078Z,97971.88
2023-11-13T01:24:12.062Z,97970.06
2023-11-13T01:25:14.185Z,97970.06
2023-11-13T01:26:16.272Z,97970.69
2023-11-13T01:27:19.325Z,97967.50
2023-11-13T01:28:21.408Z,97968.09
2023-11-13T01:29:23.681Z,97965.72
2023-11-13T01:30:25.597Z,97957.41
2023-11-13T01:31:27.584Z,97957.72
2023-11-13T01:32:29.496Z,97946.75
2023-11-13T01:33:31.475Z,97942.75
2023-11-13T01:34:33.554Z,97931.44
2023-11-13T01:35:35.712Z,97920.16
2023-11-13T01:36:37.659Z,97915.88
2023-11-13T01:37:39.606Z,97916.47
2023-11-13T01:38:41.582Z,97909.78
2023-11-13T01:39:43.515Z,97913.84
2023-11-13T01:40:45.651Z,97913.34
2023-11-13T01:41:47.572Z,97913.34
2023-11-13T01:42:50.040Z,97910.47
2023-11-13T01:43:51.991Z,97909.97
2023-11-13T01:44:57.013Z,97914.56
2023-11-13T01:46:00.809Z,97915.94
2023-11-13T01:47:04.698Z,97918.16
2023-11-13T01:48:07.151Z,97919.25
2023-11-13T01:49:09.504Z,97911.78
2023-11-13T01:50:12.157Z,97912.88
2023-11-13T01:51:15.263Z,97920.16
2023-11-13T01:52:17.802Z,97910.75
2023-11-13T01:53:27.569Z,97913.47
2023-11-13T01:54:30.210Z,97920.56
2023-11-13T01:55:32.328Z,97909.78
2023-11-13T01:56:36.146Z,97908.47
2023-11-13T01:57:39.659Z,97915.28
2023-11-13T01:58:41.550Z,97917.97
2023-11-13T01:59:45.317Z,97913.94
2023-11-13T02:00:48.443Z,97909.66
2023-11-13T02:01:50.688Z,97919.44
2023-11-13T02:02:54.785Z,97915.16
2023-11-13T02:03:57.080Z,97918.97
2023-11-13T02:04:59.094Z,97913.88
2023-11-13T02:06:02.493Z,97921.44
2023-11-13T02:07:05.853Z,97920.63
2023-11-13T02:08:08.971Z,97918.22
2023-11-13T02:09:14.809Z,97920.44
2023-11-13T02:10:16.884Z,97923.13
2023-11-13T02:11:22.049Z,97924.22
2023-11-13T02:12:24.160Z,97919.94
2023-11-13T02:13:26.899Z,97925.94
2023-11-13T02:14:30.215Z,97924.31
2023-11-13T02:15:33.096Z,97922.72
2023-11-13T02:16:36.184Z,97925.66
2023-11-13T02:17:38.287Z,97911.72
2023-11-13T02:18:41.087Z,97920.59
2023-11-13T02:19:44.629Z,97919.00
2023-11-13T02:20:46.467Z,97919.28
2023-11-13T02:21:48.415Z,97911.50
2023-11-13T02:22:50.331Z,97912.59
2023-11-13T02:23:53.500Z,97903.72
2023-11-13T02:24:55.754Z,97912.88
2023-11-13T02:25:59.128Z,97908.59
2023-11-13T02:27:01.257Z,97905.09
2023-11-13T02:28:03.546Z,97905.69
2023-11-13T02:29:05.424Z,97897.63
2023-11-13T02:30:08.314Z,97902.50
2023-11-13T02:31:10.555Z,97892.03
2023-11-13T02:32:13.561Z,97887.75
2023-11-13T02:33:16.042Z,97885.84
2023-11-13T02:34:18.311Z,97883.75
2023-11-13T02:35:21.193Z,97884.84
2023-11-13T02:36:23.228Z,97873.56
2023-11-13T02:37:25.303Z,97867.69
2023-11-13T02:38:27.289Z,97872.28
2023-11-13T02:39:29.451Z,97883.34
2023-11-13T02:40:31.440Z,97876.38
2023-11-13T02:41:34.313Z,97876.38
2023-11-13T02:42:36.979Z,97877.72
2023-11-13T02:43:38.842Z,97885.00
2023-11-13T02:44:40.796Z,97879.63
2023-11-13T02:45:42.761Z,97874.53
2023-11-13T02:46:44.888Z,97873.75
2023-11-13T02:47:47.006Z,97870.25
2023-11-13T02:48:49.014Z,97875.16
2023-11-13T02:49:51.040Z,97864.69
2023-11-13T02:50:54.161Z,97859.59
2023-11-13T02:51:56.319Z,97855.00
2023-11-13T02:52:59.080Z,97844.25
2023-11-13T02:54:01.002Z,97841.31
2023-11-13T02:55:03.364Z,97842.41
2023-11-13T02:56:06.100Z,97853.97
2023-11-13T02:57:08.105Z,97850.78
2023-11-13T02:58:10.370Z,97854.56
2023-11-13T02:59:12.293Z,97855.69
2023-11-13T03:00:14.575Z,97857.56
2023-11-13T03:01:17.834Z,97849.78
2023-11-13T03:02:20.282Z,97849.78
2023-11-13T03:03:26.632Z,97845.50
2023-11-13T03:04:28.805Z,97839.59
2023-11-13T03:05:30.756Z,97845.78
2023-11-13T03:06:33.870Z,97842.59
2023-11-13T03:07:36.317Z,97846.38
2023-11-13T03:08:38.242Z,97850.16
2023-11-13T03:09:40.110Z,97846.19
2023-11-13T03:10:42.042Z,97853.94
2023-11-13T03:11:44.062Z,97856.94
2023-11-13T03:12:46.217Z,97854.56
2023-11-13T03:13:48.282Z,97854.06
2023-11-13T03:14:51.179Z,97856.44
2023-11-13T03:15:53.162Z,97855.13
2023-11-13T03:16:55.348Z,97850.00
2023-11-13T03:17:57.629Z,97850.81
2023-11-13T03:18:59.699Z,97865.34
2023-11-13T03:20:03.997Z,97861.88
2023-11-13T03:21:07.140Z,97859.75
2023-11-13T03:22:09.082Z,97868.94
2023-11-13T03:23:12.681Z,97865.44
2023-11-13T03:24:14.772Z,97867.34
2023-11-13T03:25:16.899Z,97860.06
2023-11-13T03:26:19.248Z,97856.88
2023-11-13T03:27:21.322Z,97850.97
2023-11-13T03:28:23.462Z,97848.28
2023-11-13T03:29:28.255Z,97852.06
2023-11-13T03:30:33.247Z,97845.09
2023-11-13T03:31:35.220Z,97850.47
2023-11-13T03:32:37.184Z,97850.75
2023-11-13T03:33:39.222Z,97848.06
2023-11-13T03:34:42.054Z,97846.78
2023-11-13T03:35:44.293Z,97860.22
2023-11-13T03:36:46.900Z,97860.22
2023-11-13T03:37:49.037Z,97851.66
2023-11-13T03:38:51.152Z,97866.19
2023-11-13T03:39:54.625Z,97864.88
2023-11-13T03:40:56.736Z,97864.56
2023-11-13T03:41:58.738Z,97866.47
2023-11-13T03:43:00.743Z,97870.25
2023-11-13T03:44:02.798Z,97862.19
2023-11-13T03:45:05.414Z,97869.75
2023-11-13T03:46:07.425Z,97874.03
2023-11-13T03:47:09.685Z,97875.94
2023-11-13T03:48:11.900Z,97873.53
2023-11-13T03:49:13.876Z,97873.53
2023-11-13T03:50:15.915Z,97875.72
2023-11-13T03:51:20.314Z,97887.28
2023-11-13T03:52:22.515Z,97890.25
2023-11-13T03:53:24.726Z,97890.56
2023-11-13T03:54:26.701Z,97892.44
2023-11-13T03:55:28.568Z,97890.84
2023-11-13T03:56:30.760Z,97890.03
2023-11-13T03:57:32.693Z,97893.81
2023-11-13T03:58:34.648Z,97887.63
2023-11-13T03:59:36.523Z,97892.50
2023-11-13T04:00:38.612Z,97892.50
2023-11-13T04:01:40.612Z,97900.56
2023-11-13T04:02:42.694Z,97900.88
2023-11-13T04:03:45.316Z,97892.81
2023-11-13T04:04:47.442Z,97898.97
2023-11-13T04:05:49.627Z,97898.47
2023-11-13T04:06:51.708Z,97889.59
2023-11-13T04:07:53.782Z,97889.59
2023-11-13T04:08:55.749Z,97894.19
2023-11-13T04:09:57.665Z,97894.47
2023-11-13T04:11:00.183Z,97897.44
2023-11-13T04:12:02.694Z,97899.06
2023-11-13T04:13:04.649Z,97897.44
2023-11-13T04:14:06.699Z,97901.75
2023-11-13T04:15:10.747Z,97901.22
2023-11-13T04:16:13.019Z,97901.50
2023-11-13T04:17:16.100Z,97904.19
2023-11-13T04:18:18.380Z,97899.13
2023-11-13T04:19:21.531Z,97907.19
2023-11-13T04:20:26.912Z,97896.72
2023-11-13T04:21:32.884Z,97904.00
2023-11-13T04:22:35.530Z,97909.38
2023-11-13T04:23:37.597Z,97899.69
2023-11-13T04:24:39.474Z,97905.88
2023-11-13T04:25:46.984Z,97911.84
2023-11-13T04:26:48.967Z,97909.97
2023-11-13T04:27:50.893Z,97905.66
2023-11-13T04:28:53.607Z,97899.75
2023-11-13T04:29:55.809Z,97904.03
2023-11-13T04:30:58.384Z,97908.63
2023-11-13T04:32:00.278Z,97913.19
2023-11-13T04:33:02.278Z,97903.03
2023-11-13T04:34:07.099Z,97901.94
2023-11-13T04:35:09.305Z,97903.84
2023-11-13T04:36:11.404Z,97900.06
2023-11-13T04:37:13.875Z,97899.25
2023-11-13T04:38:17.281Z,97900.06
2023-11-13T04:39:19.991Z,97907.31
2023-11-13T04:40:22.607Z,97906.81
2023-11-13T04:41:24.740Z,97909.50
2023-11-13T04:42:26.795Z,97898.44
2023-11-13T04:43:28.739Z,97896.06
2023-11-13T04:44:30.837Z,97900.13
2023-11-13T04:45:32.759Z,97893.66
2023-11-13T04:46:34.909Z,97905.50
2023-11-13T04:47:36.930Z,97896.94
2023-11-13T04:48:40.307Z,97902.03
2023-11-13T04:49:43.022Z,97893.97
2023-11-13T04:50:44.999Z,97894.25
2023-11-13T04:51:46.914Z,97896.66
2023-11-13T04:52:48.847Z,97889.13
2023-11-13T04:53:50.844Z,97895.56
2023-11-13T04:54:53.696Z,97888.59
2023-11-13T04:55:55.565Z,97892.09
2023-11-13T04:56:58.787Z,97889.69
2023-11-13T04:58:00.823Z,97896.97
2023-11-13T04:59:03.097Z,97906.13
2023-11-13T05:00:06.392Z,97908.00
2023-11-13T05:01:08.537Z,97908.00
2023-11-13T05:02:10.927Z,97914.47
2023-11-13T05:03:13.501Z,97908.28
2023-11-13T05:04:15.373Z,97912.88
2023-11-13T05:05:17.479Z,97912.06
2023-11-13T05:06:19.618Z,97905.59
2023-11-13T05:07:22.018Z,97913.16
2023-11-13T05:08:25.029Z,97913.97
2023-11-13T05:09:27.497Z,97912.38
2023-11-13T05:10:29.624Z,97913.44
2023-11-13T05:11:32.030Z,97907.53
2023-11-13T05:12:34.207Z,97911.84
2023-11-13T05:13:36.495Z,97917.22
2023-11-13T05:14:42.058Z,97910.22
2023-11-13T05:15:44.427Z,97909.94
2023-11-13T05:16:48.331Z,97904.84
2023-11-13T05:17:51.467Z,97903.25
2023-11-13T05:18:54.267Z,97897.88
2023-11-13T05:19:56.335Z,97902.16
2023-11-13T05:20:58.435Z,97897.88
2023-11-13T05:22:00.653Z,97894.69
2023-11-13T05:23:02.601Z,97896.28
2023-11-13T05:24:05.372Z,97898.97
2023-11-13T05:25:09.053Z,97896.28
2023-11-13T05:26:11.141Z,97901.66
2023-11-13T05:27:14.376Z,97901.66
2023-11-13T05:28:16.502Z,97896.59
2023-11-13T05:29:19.529Z,97899.28
2023-11-13T05:30:21.749Z,97897.66
2023-11-13T05:31:23.787Z,97901.44
2023-11-13T05:32:25.792Z,97886.13
2023-11-13T05:33:31.458Z,97884.53
2023-11-13T05:34:33.430Z,97886.13
2023-11-13T05:35:35.452Z,97882.94
2023-11-13T05:36:37.398Z,97879.94
2023-11-13T05:37:39.382Z,97889.91
2023-11-13T05:38:45.098Z,97891.25
2023-11-13T05:39:47.063Z,97889.09
2023-11-13T05:40:49.426Z,97879.72
2023-11-13T05:41:51.291Z,97882.41
2023-11-13T05:42:55.752Z,97878.09
2023-11-13T05:43:58.992Z,97887.50
2023-11-13T05:45:00.939Z,97886.72
2023-11-13T05:46:04.328Z,97876.50
2023-11-13T05:47:06.661Z,97882.41
2023-11-13T05:48:09.058Z,97888.84
2023-11-13T05:49:13.446Z,97888.06
2023-11-13T05:50:15.545Z,97883.78
2023-11-13T05:51:19.686Z,97871.94
2023-11-13T05:52:21.822Z,97873.81
2023-11-13T05:53:23.868Z,97874.91
2023-11-13T05:54:25.961Z,97873.03
2023-11-13T05:55:27.886Z,97878.69
2023-11-13T05:56:30.154Z,97881.09
2023-11-13T05:57:32.064Z,97888.66
2023-11-13T05:58:34.226Z,97890.25
2023-11-13T05:59:36.291Z,97896.69
2023-11-13T06:00:38.486Z,97896.69
2023-11-13T06:01:40.394Z,97899.38
2023-11-13T06:02:43.393Z,97905.84
2023-11-13T06:03:45.756Z,97903.97
2023-11-13T06:04:47.791Z,97884.66
2023-11-13T06:05:50.538Z,97902.06
2023-11-13T06:06:52.789Z,97894.31
2023-11-13T06:07:54.755Z,97898.88
2023-11-13T06:08:56.880Z,97904.75
2023-11-13T06:09:59.438Z,97906.94
2023-11-13T06:11:01.366Z,97901.56
2023-11-13T06:12:03.463Z,97902.66
2023-11-13T06:13:07.372Z,97908.03
2023-11-13T06:14:09.841Z,97911.53
2023-11-13T06:15:14.686Z,97906.44
2023-11-13T06:16:17.870Z,97911.53
2023-11-13T06:17:24.853Z,97912.59
2023-11-13T06:18:27.015Z,97920.66
2023-11-13T06:19:29.274Z,97928.44
2023-11-13T06:20:31.235Z,97930.31
2023-11-13T06:21:33.461Z,97930.31
2023-11-13T06:22:35.394Z,97921.47
2023-11-13T06:23:37.632Z,97934.09
2023-11-13T06:24:40.285Z,97933.31
2023-11-13T06:25:44.615Z,97942.97
2023-11-13T06:26:47.185Z,97949.41
2023-11-13T06:27:49.073Z,97951.56
2023-11-13T06:28:52.084Z,97952.09
2023-11-13T06:29:54.601Z,97953.47
2023-11-13T06:30:56.757Z,97949.72
2023-11-13T06:32:00.062Z,97951.31
2023-11-13T06:33:03.990Z,97948.09
2023-11-13T06:34:05.946Z,97949.97
2023-11-13T06:35:08.555Z,97951.84
2023-11-13T06:36:11.794Z,97952.94
2023-11-13T06:37:14.049Z,97953.47
2023-11-13T06:38:16.885Z,97952.66
2023-11-13T06:39:19.381Z,97956.44
2023-11-13T06:40:23.205Z,97956.44
2023-11-13T06:41:25.162Z,97962.59
2023-11-13T06:42:27.117Z,97958.84
2023-11-13T06:43:29.108Z,97952.66
2023-11-13T06:44:30.980Z,97958.94
2023-11-13T06:45:32.948Z,97959.47
2023-11-13T06:46:36.170Z,97961.59
2023-11-13T06:47:38.768Z,97960.50
2023-11-13T06:48:40.997Z,97963.47
2023-11-13T06:49:43.046Z,97959.41
2023-11-13T06:50:45.066Z,97968.56
2023-11-13T06:51:47.373Z,97971.75
2023-11-13T06:52:49.371Z,97979.53
2023-11-13T06:53:51.221Z,97978.72
2023-11-13T06:54:56.058Z,97979.81
2023-11-13T06:55:58.067Z,97977.13
2023-11-13T06:57:00.291Z,97977.13
2023-11-13T06:58:02.234Z,97975.53
2023-11-13T06:59:07.972Z,97976.31
2023-11-13T07:00:11.386Z,97982.50
2023-11-13T07:01:13.365Z,97992.16
2023-11-13T07:02:16.668Z,97991.06
2023-11-13T07:03:19.538Z,98003.44
2023-11-13T07:04:21.613Z,98001.03
2023-11-13T07:05:23.871Z,98006.41
2023-11-13T07:06:28.778Z,98005.31
2023-11-13T07:07:30.759Z,98008.81
2023-11-13T07:08:32.892Z,98011.50
2023-11-13T07:09:35.124Z,98016.59
2023-11-13T07:10:39.958Z,98014.19
2023-11-13T07:11:48.885Z,98014.19
2023-11-13T07:12:50.832Z,98023.56
2023-11-13T07:13:53.961Z,98025.16
2023-11-13T07:14:56.676Z,98012.81
2023-11-13T07:15:58.784Z,98017.09
2023-11-13T07:17:00.874Z,98020.59
2023-11-13T07:18:02.910Z,98028.94
2023-11-13T07:19:05.054Z,98020.88
2023-11-13T07:20:09.309Z,98028.13
2023-11-13T07:21:11.265Z,98021.16
2023-11-13T07:22:14.868Z,98030.03
2023-11-13T07:23:18.727Z,98027.06
2023-11-13T07:24:21.053Z,98027.34
2023-11-13T07:25:23.995Z,98022.75
2023-11-13T07:26:27.595Z,98025.44
2023-11-13T07:27:29.490Z,98025.16
2023-11-13T07:28:31.791Z,98015.78
2023-11-13T07:29:33.720Z,98018.19
2023-11-13T07:30:35.703Z,98024.38
2023-11-13T07:31:37.710Z,98014.19
2023-11-13T07:32:41.046Z,98014.19
2023-11-13T07:33:42.989Z,98019.56
2023-11-13T07:34:45.221Z,98014.44
2023-11-13T07:35:47.114Z,98013.38
2023-11-13T07:36:51.958Z,98010.69
2023-11-13T07:37:55.364Z,98012.00
2023-11-13T07:38:57.232Z,98008.53
2023-11-13T07:41:02.292Z,97995.91
2023-11-13T07:42:05.179Z,97997.50
2023-11-13T07:43:10.513Z,97997.00
2023-11-13T07:44:12.418Z,97996.41
2023-11-13T07:45:14.979Z,98003.38
2023-11-13T07:46:19.707Z,97999.91
2023-11-13T07:47:27.423Z,98009.25
2023-11-13T07:48:29.428Z,98004.69
2023-11-13T07:49:31.925Z,98009.25
2023-11-13T07:50:33.919Z,98018.13
2023-11-13T07:51:57.269Z,98022.13
2023-11-13T07:52:59.149Z,98024.00
2023-11-13T07:54:01.977Z,98028.28
2023-11-13T07:55:05.376Z,98022.91
2023-11-13T07:56:10.686Z,98024.81
2023-11-13T07:57:12.811Z,98030.72
2023-11-13T07:58:15.094Z,98031.81
2023-11-13T07:59:17.206Z,98019.97
2023-11-13T08:00:24.926Z,98022.38
2023-11-13T08:01:28.251Z,98019.69
2023-11-13T08:02:30.242Z,98016.72
2023-11-13T08:03:32.505Z,98004.38
2023-11-13T08:04:34.759Z,98015.91
2023-11-13T08:05:36.671Z,98019.91
2023-11-13T08:06:38.854Z,98018.31
2023-11-13T08:07:43.360Z,98022.59
2023-11-13T08:08:46.610Z,98022.31
2023-11-13T08:09:48.584Z,98014.25
2023-11-13T08:10:53.044Z,98013.16
2023-11-13T08:11:55.210Z,98013.44
2023-11-13T08:12:57.360Z,98013.16
2023-11-13T08:13:59.717Z,98017.44
2023-11-13T08:15:01.900Z,98020.13
2023-11-13T08:16:05.961Z,98016.38
2023-11-13T08:17:08.167Z,98019.88
2023-11-13T08:18:16.603Z,98020.38
2023-11-13T08:19:19.710Z,98015.00
2023-11-13T08:20:28.126Z,98015.81
2023-11-13T08:21:32.491Z,98015.50
2023-11-13T08:22:36.818Z,98023.56
2023-11-13T08:23:39.072Z,98019.81
2023-11-13T08:24:40.985Z,98013.63
2023-11-13T08:25:49.206Z,98017.91
2023-11-13T08:26:51.276Z,98020.59
2023-11-13T08:27:53.695Z,98010.66
2023-11-13T08:28:56.225Z,98006.88
2023-11-13T08:29:58.391Z,98001.50
2023-11-13T08:31:04.904Z,97997.22
2023-11-13T08:32:08.945Z,97986.47
2023-11-13T08:33:12.533Z,97988.34
2023-11-13T08:34:16.724Z,97998.81
2023-11-13T08:35:19.394Z,97997.72
2023-11-13T08:36:27.741Z,97999.34
2023-11-13T08:37:32.478Z,98005.53
2023-11-13T08:38:37.008Z,98000.16
2023-11-13T08:39:39.607Z,98000.16
2023-11-13T08:40:41.843Z,98007.66
2023-11-13T08:41:44.820Z,97998.00
2023-11-13T08:42:47.719Z,97998.28
2023-11-13T08:43:50.016Z,98001.78
2023-11-13T08:44:52.117Z,98003.66
2023-11-13T08:46:00.478Z,98006.06
2023-11-13T08:47:04.748Z,98006.56
2023-11-13T08:48:07.018Z,97992.34
2023-11-13T08:49:10.054Z,97981.56
2023-11-13T08:50:13.496Z,97978.88
2023-11-13T08:51:15.502Z,97981.28
2023-11-13T08:52:21.221Z,97982.38
2023-11-13T08:53:24.291Z,97991.25
2023-11-13T08:54:26.205Z,97994.72
2023-11-13T08:55:28.432Z,97996.31
2023-11-13T08:56:30.968Z,97982.59
2023-11-13T08:57:34.762Z,97973.72
2023-11-13T08:58:39.735Z,97983.69
2023-11-13T08:59:41.775Z,97984.78
2023-11-13T09:00:45.230Z,97982.59
2023-11-13T09:01:47.425Z,97961.09
2023-11-13T09:02:55.783Z,97956.22
2023-11-13T09:04:01.647Z,97948.94
2023-11-13T09:05:07.273Z,97961.31
2023-11-13T09:06:10.006Z,97971.53
2023-11-13T09:07:13.646Z,97961.59
2023-11-13T09:08:15.601Z,97958.34
2023-11-13T09:09:17.697Z,97942.47
2023-11-13T09:10:23.025Z,97939.78
2023-11-13T09:11:27.995Z,97947.59
2023-11-13T09:12:31.579Z,97955.66
2023-11-13T09:13:33.536Z,97956.47
2023-11-13T09:14:36.386Z,97946.78
2023-11-13T09:15:41.272Z,97944.91
2023-11-13T09:16:43.527Z,97947.31
2023-11-13T09:17:47.890Z,97949.19
2023-11-13T09:18:50.274Z,97941.13
2023-11-13T09:19:52.417Z,97930.38
2023-11-13T09:20:58.243Z,97914.25
2023-11-13T09:22:01.568Z,97923.09
2023-11-13T09:23:05.628Z,97931.97
2023-11-13T09:24:11.112Z,97936.25
2023-11-13T09:25:15.260Z,97938.94
2023-11-13T09:26:17.199Z,97932.47
2023-11-13T09:27:19.358Z,97923.41
2023-11-13T09:28:22.464Z,97915.53
2023-11-13T09:29:24.501Z,97908.28
2023-11-13T09:30:27.779Z,97917.13
2023-11-13T09:31:29.987Z,97924.13
2023-11-13T09:32:32.524Z,97925.22
2023-11-13T09:33:35.521Z,97937.56
2023-11-13T09:34:38.437Z,97927.59
2023-11-13T09:35:41.536Z,97911.47
2023-11-13T09:36:45.569Z,97911.19
2023-11-13T09:37:59.240Z,97913.31
2023-11-13T09:39:04.744Z,97918.94
2023-11-13T09:40:09.572Z,97918.94
2023-11-13T09:41:14.170Z,97922.16
2023-11-13T09:42:19.915Z,97923.78
2023-11-13T09:43:33.402Z,97934.22
2023-11-13T09:44:43.486Z,97918.38
2023-11-13T09:45:53.159Z,97914.59
2023-11-13T09:46:58.873Z,97911.91
2023-11-13T09:48:06.594Z,97901.97
2023-11-13T09:49:11.927Z,97892.81
2023-11-13T09:50:18.336Z,97910.53
2023-11-13T09:51:30.916Z,97909.72
2023-11-13T09:52:35.666Z,97912.13
2023-11-13T09:53:41.687Z,97905.94
2023-11-13T09:54:46.858Z,97897.88
2023-11-13T09:55:49.269Z,97886.84
2023-11-13T09:56:58.009Z,97896.50
2023-11-13T09:58:02.773Z,97894.59
2023-11-13T09:59:06.965Z,97902.97
2023-11-13T10:00:18.364Z,97893.00
2023-11-13T10:01:22.038Z,97898.09
2023-11-13T10:02:26.448Z,97895.13
2023-11-13T10:03:30.772Z,97906.69
2023-11-13T10:04:33.103Z,97894.03
2023-11-13T10:05:37.355Z,97895.13
2023-11-13T10:06:47.905Z,97887.06
2023-11-13T10:07:54.957Z,97882.19
2023-11-13T10:08:57.579Z,97894.03
2023-11-13T10:10:06.637Z,97891.06
2023-11-13T10:11:11.104Z,97892.66
2023-11-13T10:12:13.863Z,97876.81
2023-11-13T10:13:22.929Z,97874.13
2023-11-13T10:14:27.068Z,97873.03
2023-11-13T10:15:32.316Z,97878.13
2023-11-13T10:16:34.695Z,97876.22
2023-11-13T10:17:50.144Z,97869.44
2023-11-13T10:18:52.087Z,97865.47
2023-11-13T10:20:00.648Z,97866.75
2023-11-13T10:21:03.831Z,97864.38
2023-11-13T10:22:16.925Z,97851.41
2023-11-13T10:23:19.032Z,97855.19
2023-11-13T10:24:34.058Z,97845.84
2023-11-13T10:25:54.098Z,97848.72
2023-11-13T10:26:57.373Z,97841.47
2023-11-13T10:28:02.480Z,97833.69
2023-11-13T10:29:21.242Z,97835.22
2023-11-13T10:30:23.210Z,97837.16
2023-11-13T10:31:26.384Z,97839.56
2023-11-13T10:32:34.541Z,97833.63
2023-11-13T10:33:37.983Z,97835.81
2023-11-13T10:34:45.960Z,97829.84
2023-11-13T10:35:49.970Z,97836.31
2023-11-13T10:37:13.210Z,97832.44
2023-11-13T10:38:16.402Z,97824.47
2023-11-13T10:39:36.420Z,97827.06
2023-11-13T10:40:45.200Z,97819.56
2023-11-13T10:41:47.543Z,97823.06
2023-11-13T10:42:51.228Z,97824.16
2023-11-13T10:43:53.620Z,97820.38
2023-11-13T10:45:00.997Z,97825.44
2023-11-13T10:46:03.762Z,97821.97
2023-11-13T10:47:28.966Z,97821.59
2023-11-13T10:48:50.451Z,97816.00
2023-11-13T10:49:58.590Z,97804.97
2023-11-13T10:51:05.851Z,97807.13
2023-11-13T10:52:08.438Z,97802.28
2023-11-13T10:53:14.080Z,97794.47
2023-11-13T10:54:17.290Z,97797.16
2023-11-13T10:55:20.828Z,97793.66
2023-11-13T10:56:24.422Z,97788.28
2023-11-13T10:57:27.604Z,97789.31
2023-11-13T10:58:29.898Z,97780.75
2023-11-13T10:59:32.163Z,97787.41
2023-11-13T11:00:37.212Z,97784.72
2023-11-13T11:01:43.332Z,97783.34
2023-11-13T11:02:55.239Z,97781.94
2023-11-13T11:04:06.894Z,97775.75
2023-11-13T11:05:19.253Z,97779.25
2023-11-13T11:06:24.292Z,97775.75
2023-11-13T11:07:31.257Z,97778.44
2023-11-13T11:08:36.031Z,97779.25
2023-11-13T11:09:41.802Z,97775.47
2023-11-13T11:10:44.495Z,97775.47
2023-11-13T11:11:49.700Z,97781.41
2023-11-13T11:13:11.171Z,97770.84
2023-11-13T11:14:46.782Z,97775.00
2023-11-13T11:16:14.430Z,97771.25
2023-11-13T11:17:32.636Z,97770.72
2023-11-13T11:18:45.539Z,97772.13
2023-11-13T11:19:53.143Z,97768.44
2023-11-13T11:21:36.767Z,97775.81
2023-11-13T11:22:52.026Z,97765.03
2023-11-13T11:24:44.301Z,97762.88
2023-11-13T11:25:52.913Z,97761.06
2023-11-13T11:27:02.585Z,97761.38
2023-11-13T11:28:05.920Z,97762.47
2023-11-13T11:29:46.003Z,97760.97
2023-11-13T11:30:48.155Z,97764.53
2023-11-13T11:31:50.340Z,97761.06
2023-11-13T11:32:59.505Z,97750.28
2023-11-13T11:34:02.336Z,97754.09
2023-11-13T11:35:07.729Z,97761.66
2023-11-13T11:36:11.241Z,97762.47
2023-11-13T11:37:17.674Z,97758.66
2023-11-13T11:38:23.780Z,97753.78
2023-11-13T11:39:27.112Z,97756.47
2023-11-13T11:40:34.251Z,97753.78
2023-11-13T11:41:44.589Z,97754.81
2023-11-13T11:42:46.575Z,97735.75
2023-11-13T11:43:50.299Z,97752.69
2023-11-13T11:44:55.173Z,97747.81
2023-11-13T11:46:00.217Z,97752.41
2023-11-13T11:47:08.793Z,97752.91
2023-11-13T11:48:16.476Z,97742.16
2023-11-13T11:49:27.285Z,97735.06
2023-11-13T11:50:29.734Z,97729.47
2023-11-13T11:51:31.610Z,97719.03
2023-11-13T11:52:53.348Z,97727.19
2023-11-13T11:53:57.535Z,97722.41
2023-11-13T11:55:05.026Z,97727.28
2023-11-13T11:56:08.636Z,97724.28
2023-11-13T11:57:12.862Z,97724.28
2023-11-13T11:58:17.086Z,97717.00
2023-11-13T11:59:21.050Z,97705.44
2023-11-13T12:00:27.285Z,97712.13
2023-11-13T12:01:29.872Z,97703.56
2023-11-13T12:02:34.132Z,97694.38
2023-11-13T12:03:36.268Z,97693.28
2023-11-13T12:04:38.758Z,97685.50
2023-11-13T12:05:42.164Z,97688.69
2023-11-13T12:06:50.107Z,97685.22
2023-11-13T12:07:53.593Z,97689.22
2023-11-13T12:08:56.577Z,97682.53
2023-11-13T12:09:58.460Z,97682.22
2023-11-13T12:11:00.376Z,97682.22
2023-11-13T12:12:02.959Z,97682.75
2023-11-13T12:13:05.621Z,97681.16
2023-11-13T12:14:13.049Z,97682.75
2023-11-13T12:15:16.516Z,97673.56
2023-11-13T12:16:22.396Z,97680.53
2023-11-13T12:17:24.743Z,97681.63
2023-11-13T12:18:28.079Z,97678.94
2023-11-13T12:19:29.970Z,97674.34
2023-11-13T12:20:32.433Z,97668.19
2023-11-13T12:21:35.454Z,97677.84
2023-11-13T12:22:41.821Z,97668.66
2023-11-13T12:23:48.010Z,97667.06
2023-11-13T12:24:50.131Z,97667.06
2023-11-13T12:25:52.401Z,97662.50
2023-11-13T12:26:57.821Z,97655.22
2023-11-13T12:27:59.864Z,97662.50
2023-11-13T12:29:15.928Z,97658.56
2023-11-13T12:30:18.487Z,97659.97
2023-11-13T12:31:21.477Z,97652.22